Greenbackville, Virginia
Current Conditions -  °F | °C
As of 6:54 AM on Monday 22 Dec 2014 (Local Time) from KWAL Reporting Station
Overcast Overcast  
Wind Chill: 31°   Ceiling: 5000
Heat Index: 37°   Visibility: 10mi
Dew Point: 32°   Wind: 8mph
Humidity: 82%   Direction: 40°NE
Pressure: 30.25"   Gusts: NA
Location:  38.01°N, 75.39°W
Report Text: KWAL 221154Z AUTO 04007KT 10SM OVC050 03/00 A3025 RMK AO2 SLP241 T00280000 10028 21011 56011
Loading
Personal Weather Stations






























Interactive Weather Map New forecast layout! Learn more

10-Day Weather Forecast

Advertisements
Track Severe Weather on mobile